createdAt,value
2018-06-12T00:00:53.189Z,13.33
2018-06-12T00:03:21.327Z,12.97
2018-06-12T00:05:49.478Z,13.03
2018-06-12T00:08:17.606Z,13.43
2018-06-12T00:10:45.750Z,13.37
2018-06-12T00:13:13.885Z,13.00
2018-06-12T00:15:42.058Z,14.03
2018-06-12T00:18:10.185Z,15.00
2018-06-12T00:20:38.307Z,13.93
2018-06-12T00:23:06.433Z,14.30
2018-06-12T00:25:34.559Z,13.57
2018-06-12T00:28:02.674Z,15.13
2018-06-12T00:30:30.841Z,15.10
2018-06-12T00:32:58.994Z,14.87
2018-06-12T00:35:27.117Z,14.13
2018-06-12T00:37:55.276Z,14.00
2018-06-12T00:40:23.402Z,13.37
2018-06-12T00:42:51.537Z,13.10
2018-06-12T00:45:19.665Z,12.17
2018-06-12T00:47:47.813Z,12.60
2018-06-12T00:50:15.938Z,12.80
2018-06-12T00:52:44.081Z,12.67
2018-06-12T00:55:12.205Z,12.73
2018-06-12T00:57:40.355Z,12.97
2018-06-12T01:00:08.465Z,12.93
2018-06-12T01:02:36.634Z,11.37
2018-06-12T01:05:04.768Z,11.03
2018-06-12T01:07:32.914Z,11.33
2018-06-12T01:10:01.053Z,12.63
2018-06-12T01:12:29.209Z,12.63
2018-06-12T01:14:57.331Z,12.43
2018-06-12T01:17:25.454Z,12.07
2018-06-12T01:19:53.591Z,12.60
2018-06-12T01:22:21.729Z,11.93
2018-06-12T01:24:49.870Z,11.83
2018-06-12T01:27:17.982Z,11.97
2018-06-12T01:29:46.597Z,11.60
2018-06-12T01:32:14.705Z,12.50
2018-06-12T01:34:42.813Z,12.80
2018-06-12T01:37:10.933Z,12.63
2018-06-12T01:39:39.048Z,12.87
2018-06-12T01:42:07.211Z,12.20
2018-06-12T01:44:35.333Z,12.73
2018-06-12T01:47:03.533Z,12.70
2018-06-12T01:49:31.650Z,12.37
2018-06-12T01:51:59.770Z,12.23
2018-06-12T01:54:27.885Z,12.90
2018-06-12T01:56:56.022Z,12.17
2018-06-12T01:59:24.143Z,12.93
2018-06-12T02:01:52.261Z,12.83
2018-06-12T02:04:20.406Z,12.37
2018-06-12T02:06:48.535Z,11.97
2018-06-12T02:09:16.713Z,12.73
2018-06-12T02:11:44.824Z,12.53
2018-06-12T02:14:12.930Z,12.33
2018-06-12T02:16:41.053Z,11.63
2018-06-12T02:19:09.162Z,12.97
2018-06-12T02:21:37.285Z,12.53
2018-06-12T02:24:05.459Z,12.37
2018-06-12T02:26:33.561Z,12.77
2018-06-12T02:29:01.661Z,12.20
2018-06-12T02:31:29.783Z,11.83
2018-06-12T02:33:57.888Z,11.37
2018-06-12T02:36:26.013Z,11.73
2018-06-12T02:38:54.129Z,10.60
2018-06-12T02:41:22.246Z,11.53
2018-06-12T02:43:50.356Z,10.93
2018-06-12T02:46:18.469Z,12.60
2018-06-12T02:48:46.580Z,11.27
2018-06-12T02:51:14.690Z,11.80
2018-06-12T02:53:42.826Z,11.50
2018-06-12T02:56:10.977Z,12.23
2018-06-12T02:58:39.106Z,10.93
2018-06-12T03:01:07.211Z,11.13
2018-06-12T03:03:35.941Z,12.33
2018-06-12T03:06:04.050Z,11.03
2018-06-12T03:08:32.172Z,10.93
2018-06-12T03:11:00.282Z,10.90
2018-06-12T03:13:28.427Z,10.93
2018-06-12T03:15:56.533Z,10.80
2018-06-12T03:18:24.637Z,11.20
2018-06-12T03:20:52.769Z,11.63
2018-06-12T03:23:21.017Z,11.60
2018-06-12T03:25:54.586Z,11.17
2018-06-12T03:28:22.684Z,11.77
2018-06-12T03:30:50.790Z,12.47
2018-06-12T03:33:18.894Z,12.03
2018-06-12T03:35:47.038Z,11.73
2018-06-12T03:38:15.142Z,11.67
2018-06-12T03:40:43.249Z,12.00
2018-06-12T03:43:11.392Z,12.33
2018-06-12T03:45:39.513Z,12.40
2018-06-12T03:48:07.617Z,12.23
2018-06-12T03:50:35.726Z,12.07
2018-06-12T03:53:03.845Z,12.33
2018-06-12T03:55:31.965Z,12.23
2018-06-12T03:58:00.105Z,13.03
2018-06-12T04:00:28.228Z,11.80
2018-06-12T04:02:56.342Z,12.90
2018-06-12T04:05:24.481Z,12.53
2018-06-12T04:07:52.590Z,12.43
2018-06-12T04:10:20.693Z,12.20
2018-06-12T04:12:48.817Z,12.17
2018-06-12T04:15:16.942Z,11.40
2018-06-12T04:17:45.042Z,11.30
2018-06-12T04:20:13.242Z,11.53
2018-06-12T04:22:41.381Z,11.30
2018-06-12T04:25:09.495Z,11.53
2018-06-12T04:27:37.613Z,11.30
2018-06-12T04:30:05.717Z,12.03
2018-06-12T04:32:33.831Z,10.57
2018-06-12T04:35:01.940Z,10.53
2018-06-12T04:37:30.038Z,10.60
2018-06-12T04:39:58.149Z,10.43
2018-06-12T04:42:26.249Z,10.40
2018-06-12T04:44:54.350Z,10.23
2018-06-12T04:47:22.466Z,10.10
2018-06-12T04:49:50.597Z,10.17
2018-06-12T04:52:18.706Z,9.57
2018-06-12T04:54:46.865Z,9.67
2018-06-12T04:57:15.042Z,10.00
2018-06-12T04:59:43.189Z,9.63
2018-06-12T05:02:11.300Z,9.60
2018-06-12T05:04:39.420Z,9.07
2018-06-12T05:07:07.529Z,8.93
2018-06-12T05:09:35.647Z,8.87
2018-06-12T05:12:03.757Z,9.13
2018-06-12T05:14:31.878Z,9.50
2018-06-12T05:16:59.981Z,8.27
2018-06-12T05:19:28.091Z,9.60
2018-06-12T05:21:56.181Z,8.27
2018-06-12T05:24:24.301Z,8.63
2018-06-12T05:26:52.408Z,8.40
2018-06-12T05:29:20.507Z,7.90
2018-06-12T05:31:48.661Z,8.30
2018-06-12T05:34:16.769Z,8.20
2018-06-12T05:36:44.918Z,7.50
2018-06-12T05:39:13.109Z,7.83
2018-06-12T05:41:41.249Z,8.33
2018-06-12T05:44:09.349Z,7.83
2018-06-12T05:46:37.463Z,7.37
2018-06-12T05:49:05.638Z,8.13
2018-06-12T05:51:33.761Z,7.40
2018-06-12T05:54:01.854Z,7.00
2018-06-12T05:56:29.968Z,7.00
2018-06-12T05:58:58.065Z,7.43
2018-06-12T06:01:26.211Z,7.90
2018-06-12T06:03:54.301Z,6.83
2018-06-12T06:06:22.413Z,6.80
2018-06-12T06:08:50.533Z,6.43
2018-06-12T06:11:18.684Z,6.80
2018-06-12T06:13:46.807Z,6.90
2018-06-12T06:16:14.941Z,6.77
2018-06-12T06:18:43.057Z,6.47
2018-06-12T06:21:11.145Z,6.57
2018-06-12T06:23:39.257Z,6.33
2018-06-12T06:26:07.446Z,6.40
2018-06-12T06:28:35.567Z,6.97
2018-06-12T06:31:03.678Z,5.67
2018-06-12T06:33:31.801Z,5.23
2018-06-12T06:35:59.897Z,5.47
2018-06-12T06:38:28.054Z,5.23
2018-06-12T06:40:56.473Z,4.90
2018-06-12T06:43:26.271Z,4.60
2018-06-12T06:45:54.378Z,4.50
2018-06-12T06:48:22.501Z,4.80
2018-06-12T06:50:50.617Z,4.60
2018-06-12T06:53:18.749Z,4.30
2018-06-12T06:55:47.365Z,4.30
2018-06-12T06:58:15.536Z,3.70
2018-06-12T07:00:43.641Z,4.23
2018-06-12T07:03:11.762Z,3.80
2018-06-12T07:05:39.878Z,3.90
2018-06-12T07:08:08.010Z,3.70
2018-06-12T07:10:36.109Z,3.20
2018-06-12T07:13:04.236Z,3.27
2018-06-12T07:15:32.338Z,3.37
2018-06-12T07:18:00.449Z,3.77
2018-06-12T07:21:32.157Z,3.50
2018-06-12T07:24:00.262Z,3.50
2018-06-12T07:26:28.356Z,3.77
2018-06-12T07:28:56.457Z,3.87
2018-06-12T07:31:24.554Z,3.67
2018-06-12T07:33:52.655Z,3.60
2018-06-12T07:36:20.747Z,3.33
2018-06-12T07:38:48.861Z,3.60
2018-06-12T07:41:16.958Z,3.40
2018-06-12T07:43:45.090Z,3.00
2018-06-12T07:46:13.174Z,2.83
2018-06-12T07:48:41.269Z,3.23
2018-06-12T07:51:09.382Z,2.77
2018-06-12T07:53:37.464Z,2.63
2018-06-12T07:56:05.553Z,2.57
2018-06-12T07:58:33.651Z,2.37
2018-06-12T08:01:01.801Z,2.40
2018-06-12T08:03:29.855Z,2.07
2018-06-12T08:05:57.942Z,2.43
2018-06-12T08:08:26.038Z,2.30
2018-06-12T08:10:54.144Z,2.47
2018-06-12T08:13:22.254Z,2.77
2018-06-12T08:15:50.354Z,2.03
2018-06-12T08:18:18.461Z,2.80
2018-06-12T08:20:46.561Z,2.20
2018-06-12T08:23:14.654Z,2.70
2018-06-12T08:25:42.748Z,2.93
2018-06-12T08:28:10.847Z,2.43
2018-06-12T08:30:38.959Z,2.73
2018-06-12T08:33:07.090Z,2.57
2018-06-12T08:35:35.264Z,3.10
2018-06-12T08:38:03.325Z,2.50
2018-06-12T08:40:31.437Z,3.00
2018-06-12T08:42:59.553Z,3.60
2018-06-12T08:45:27.653Z,3.53
2018-06-12T08:47:55.760Z,4.43
2018-06-12T08:50:23.869Z,5.43
2018-06-12T08:52:51.971Z,6.70
2018-06-12T08:55:20.138Z,6.30
2018-06-12T08:57:48.236Z,6.30
2018-06-12T09:00:16.345Z,5.13
2018-06-12T09:02:44.494Z,4.10
2018-06-12T09:05:12.561Z,4.87
2018-06-12T09:07:40.662Z,5.10
2018-06-12T09:10:08.765Z,5.40
2018-06-12T09:12:36.909Z,5.23
2018-06-12T09:15:05.010Z,5.13
2018-06-12T09:17:33.123Z,5.47
2018-06-12T09:20:01.212Z,5.63
2018-06-12T09:22:29.317Z,6.27
2018-06-12T09:24:57.429Z,5.90
2018-06-12T09:27:25.545Z,6.30
2018-06-12T09:29:53.650Z,5.93
2018-06-12T09:32:22.137Z,6.27
2018-06-12T09:34:50.253Z,5.57
2018-06-12T09:37:18.354Z,6.53
2018-06-12T09:39:46.443Z,5.93
2018-06-12T09:42:14.554Z,6.40
2018-06-12T09:44:42.650Z,5.93
2018-06-12T09:47:10.774Z,5.90
2018-06-12T09:49:38.865Z,5.93
2018-06-12T09:52:06.966Z,5.83
2018-06-12T09:54:35.066Z,5.57
2018-06-12T09:57:03.162Z,5.60
2018-06-12T09:59:32.144Z,6.53
2018-06-12T10:02:00.237Z,5.70
2018-06-12T10:04:28.350Z,5.03
2018-06-12T10:06:56.458Z,4.80
2018-06-12T10:09:24.618Z,5.17
2018-06-12T10:11:52.717Z,5.40
2018-06-12T10:14:20.817Z,5.33
2018-06-12T10:16:48.929Z,4.63
2018-06-12T10:19:17.034Z,4.60
2018-06-12T10:21:45.153Z,4.47
2018-06-12T10:24:13.249Z,3.67
2018-06-12T10:26:41.349Z,3.37
2018-06-12T10:29:09.459Z,3.50
2018-06-12T10:31:37.552Z,3.30
2018-06-12T10:34:05.669Z,3.90
2018-06-12T10:36:33.773Z,3.67
2018-06-12T10:39:01.870Z,3.70
2018-06-12T10:41:29.989Z,4.17
2018-06-12T10:43:58.081Z,4.03
2018-06-12T10:46:26.206Z,3.97
2018-06-12T10:48:54.297Z,4.73
2018-06-12T10:51:22.425Z,3.83
2018-06-12T10:53:50.541Z,4.47
2018-06-12T10:56:18.666Z,3.93
2018-06-12T10:58:46.761Z,3.77
2018-06-12T11:01:14.892Z,4.07
2018-06-12T11:03:42.997Z,3.97
2018-06-12T11:06:11.123Z,4.10
2018-06-12T11:08:39.227Z,4.53
2018-06-12T11:11:07.342Z,3.90
2018-06-12T11:13:35.441Z,4.40
2018-06-12T11:16:03.593Z,4.33
2018-06-12T11:18:31.721Z,4.00
2018-06-12T11:20:59.869Z,3.53
2018-06-12T11:23:27.969Z,4.27
2018-06-12T11:25:56.093Z,4.87
2018-06-12T11:28:24.207Z,4.07
2018-06-12T11:30:52.327Z,5.00
2018-06-12T11:33:20.423Z,4.47
2018-06-12T11:35:48.541Z,4.20
2018-06-12T11:38:16.645Z,4.50
2018-06-12T11:40:44.765Z,5.63
2018-06-12T11:43:12.897Z,5.20
2018-06-12T11:45:41.002Z,5.43
2018-06-12T11:48:09.125Z,5.10
2018-06-12T11:50:37.248Z,4.80
2018-06-12T11:53:05.371Z,5.87
2018-06-12T11:55:33.485Z,4.73
2018-06-12T11:58:01.605Z,5.17
2018-06-12T12:00:29.705Z,5.87
2018-06-12T12:02:57.845Z,5.57
2018-06-12T12:05:25.949Z,5.20
2018-06-12T12:07:54.066Z,5.13
2018-06-12T12:10:22.218Z,6.20
2018-06-12T12:12:50.338Z,5.83
2018-06-12T12:15:18.429Z,5.70
2018-06-12T12:17:46.541Z,5.33
2018-06-12T12:20:14.645Z,5.70
2018-06-12T12:22:42.769Z,6.47
2018-06-12T12:25:11.233Z,6.23
2018-06-12T12:27:39.389Z,6.50
2018-06-12T12:30:07.481Z,6.73
2018-06-12T12:32:35.633Z,6.47
2018-06-12T12:35:03.737Z,6.47
2018-06-12T12:37:31.869Z,6.03
2018-06-12T12:39:59.981Z,6.77
2018-06-12T12:42:28.082Z,6.17
2018-06-12T12:44:56.189Z,5.87
2018-06-12T12:47:24.298Z,6.53
2018-06-12T12:49:52.388Z,6.00
2018-06-12T12:52:20.485Z,6.53
2018-06-12T12:54:48.606Z,6.60
2018-06-12T12:57:16.709Z,6.00
2018-06-12T12:59:44.822Z,6.73
2018-06-12T13:02:12.921Z,6.17
2018-06-12T13:04:41.057Z,6.17
2018-06-12T13:07:09.154Z,6.80
2018-06-12T13:09:37.274Z,6.57
2018-06-12T13:12:05.374Z,6.63
2018-06-12T13:14:33.489Z,6.37
2018-06-12T13:17:01.585Z,6.77
2018-06-12T13:19:29.705Z,6.40
2018-06-12T13:21:57.821Z,6.83
2018-06-12T13:24:25.949Z,6.70
2018-06-12T13:26:54.057Z,7.03
2018-06-12T13:29:22.182Z,7.30
2018-06-12T13:31:50.285Z,7.87
2018-06-12T13:34:18.414Z,7.10
2018-06-12T13:36:46.522Z,6.70
2018-06-12T13:39:14.675Z,7.20
2018-06-12T13:41:42.769Z,6.60
2018-06-12T13:44:10.905Z,6.83
2018-06-12T13:46:39.000Z,7.13
2018-06-12T13:49:07.110Z,6.80
2018-06-12T13:51:35.242Z,7.03
2018-06-12T13:54:03.329Z,6.67
2018-06-12T13:56:31.434Z,6.63
2018-06-12T13:58:59.529Z,7.20
2018-06-12T14:01:27.640Z,6.40
2018-06-12T14:03:55.893Z,6.40
2018-06-12T14:06:24.005Z,6.07
2018-06-12T14:08:52.107Z,6.00
2018-06-12T14:11:20.238Z,5.60
2018-06-12T14:13:48.386Z,6.00
2018-06-12T14:16:16.505Z,6.27
2018-06-12T14:18:44.617Z,5.77
2018-06-12T14:21:12.747Z,6.13
2018-06-12T14:23:41.134Z,5.53
2018-06-12T14:26:09.282Z,5.30
2018-06-12T14:28:37.407Z,5.77
2018-06-12T14:31:05.650Z,5.80
2018-06-12T14:33:33.750Z,5.53
2018-06-12T14:36:01.871Z,5.60
2018-06-12T14:38:29.994Z,5.43
2018-06-12T14:40:58.121Z,6.03
2018-06-12T14:43:26.261Z,5.60
2018-06-12T14:45:54.350Z,5.50
2018-06-12T14:48:22.454Z,5.47
2018-06-12T14:50:50.546Z,5.47
2018-06-12T14:53:18.672Z,5.37
2018-06-12T14:55:46.777Z,4.80
2018-06-12T14:58:14.865Z,4.90
2018-06-12T15:00:42.989Z,5.77
2018-06-12T15:03:11.110Z,5.03
2018-06-12T15:05:39.197Z,5.67
2018-06-12T15:08:07.334Z,5.03
2018-06-12T15:10:35.422Z,5.07
2018-06-12T15:13:03.804Z,5.37
2018-06-12T15:15:31.906Z,5.73
2018-06-12T15:18:00.043Z,5.00
2018-06-12T15:20:28.173Z,5.10
2018-06-12T15:22:56.315Z,5.80
2018-06-12T15:25:24.511Z,5.00
2018-06-12T15:27:52.570Z,4.77
2018-06-12T15:30:20.666Z,4.87
2018-06-12T15:32:48.811Z,5.33
2018-06-12T15:35:16.971Z,5.53
2018-06-12T15:37:45.091Z,5.23
2018-06-12T15:40:13.213Z,5.20
2018-06-12T15:42:41.339Z,5.53
2018-06-12T15:45:09.445Z,5.40
2018-06-12T15:47:37.557Z,4.87
2018-06-12T15:50:05.650Z,5.07
2018-06-12T15:52:33.771Z,6.10
2018-06-12T15:55:01.866Z,5.50
2018-06-12T15:57:29.966Z,4.77
2018-06-12T15:59:58.068Z,5.80
2018-06-12T16:02:26.177Z,5.10
2018-06-12T16:04:54.272Z,5.90
2018-06-12T16:07:22.408Z,5.07
2018-06-12T16:09:50.489Z,4.97
2018-06-12T16:12:18.592Z,4.90
2018-06-12T16:14:46.690Z,4.83
2018-06-12T16:17:14.789Z,5.17
2018-06-12T16:19:42.937Z,5.30
2018-06-12T16:22:11.047Z,4.60
2018-06-12T16:24:39.187Z,5.17
2018-06-12T16:27:07.283Z,5.60
2018-06-12T16:29:35.409Z,5.40
2018-06-12T16:32:03.514Z,5.40
2018-06-12T16:34:31.645Z,5.07
2018-06-12T16:36:59.758Z,5.17
2018-06-12T16:39:27.878Z,5.33
2018-06-12T16:41:55.974Z,5.37
2018-06-12T16:44:24.090Z,5.80
2018-06-12T16:46:52.195Z,5.70
2018-06-12T16:49:20.321Z,6.07
2018-06-12T16:51:48.451Z,5.87
2018-06-12T16:54:16.539Z,6.30
2018-06-12T16:56:44.683Z,6.17
2018-06-12T16:59:12.782Z,5.90
2018-06-12T17:01:40.993Z,5.47
2018-06-12T17:04:09.114Z,5.27
2018-06-12T17:06:37.209Z,5.60
2018-06-12T17:09:07.242Z,5.83
2018-06-12T17:11:35.378Z,5.17
2018-06-12T17:14:03.661Z,5.60
2018-06-12T17:16:31.784Z,5.13
2018-06-12T17:18:59.894Z,5.13
2018-06-12T17:21:28.010Z,5.03
2018-06-12T17:23:56.154Z,5.63
2018-06-12T17:26:24.271Z,5.57
2018-06-12T17:28:52.384Z,5.83
2018-06-12T17:31:20.493Z,5.37
2018-06-12T17:33:48.614Z,5.90
2018-06-12T17:36:16.728Z,5.67
2018-06-12T17:38:44.833Z,4.73
2018-06-12T17:41:12.960Z,6.30
2018-06-12T17:43:41.053Z,5.90
2018-06-12T17:46:09.174Z,4.87
2018-06-12T17:48:37.280Z,5.30
2018-06-12T17:51:05.391Z,4.90
2018-06-12T17:53:33.483Z,5.93
2018-06-12T17:56:01.585Z,5.50
2018-06-12T17:58:29.693Z,5.73
2018-06-12T18:00:57.909Z,5.27
2018-06-12T18:03:26.005Z,5.20
2018-06-12T18:05:54.132Z,4.93
2018-06-12T18:08:23.285Z,5.60
2018-06-12T18:10:51.382Z,5.47
2018-06-12T18:13:19.501Z,5.43
2018-06-12T18:15:47.610Z,5.60
2018-06-12T18:18:15.770Z,4.87
2018-06-12T18:20:46.981Z,5.17
2018-06-12T18:23:15.610Z,5.77
2018-06-12T18:25:43.719Z,4.90
2018-06-12T18:28:11.842Z,4.40
2018-06-12T18:30:39.933Z,4.93
2018-06-12T18:33:08.193Z,4.50
2018-06-12T18:35:36.277Z,4.60
2018-06-12T18:38:04.414Z,4.57
2018-06-12T18:40:32.542Z,4.60
2018-06-12T18:43:00.681Z,4.87
2018-06-12T18:45:28.802Z,4.57
2018-06-12T18:47:56.970Z,5.27
2018-06-12T18:50:25.073Z,4.90
2018-06-12T18:52:53.188Z,4.87
2018-06-12T18:55:21.285Z,4.30
2018-06-12T18:57:49.393Z,4.17
2018-06-12T19:00:17.520Z,4.57
2018-06-12T19:02:45.633Z,3.83
2018-06-12T19:05:13.778Z,4.03
2018-06-12T19:07:41.911Z,4.03
2018-06-12T19:10:10.019Z,4.10
2018-06-12T19:12:38.157Z,3.77
2018-06-12T19:15:06.267Z,3.90
2018-06-12T19:17:34.365Z,3.97
2018-06-12T19:20:02.474Z,3.40
2018-06-12T19:22:30.573Z,3.47
2018-06-12T19:24:58.690Z,4.03
2018-06-12T19:27:26.795Z,3.73
2018-06-12T19:29:54.958Z,3.37
2018-06-12T19:32:23.046Z,3.47
2018-06-12T19:34:51.169Z,4.03
2018-06-12T19:37:19.262Z,3.60
2018-06-12T19:39:47.393Z,3.53
2018-06-12T19:42:15.510Z,3.60
2018-06-12T19:44:43.646Z,3.27
2018-06-12T19:47:11.740Z,3.20
2018-06-12T19:49:39.873Z,4.03
2018-06-12T19:52:07.972Z,3.73
2018-06-12T19:54:36.128Z,3.10
2018-06-12T19:57:04.230Z,3.17
2018-06-12T19:59:32.408Z,2.60
2018-06-12T20:02:00.498Z,3.07
2018-06-12T20:04:28.617Z,3.90
2018-06-12T20:06:56.721Z,2.70
2018-06-12T20:09:24.817Z,3.40
2018-06-12T20:11:52.917Z,2.30
2018-06-12T20:14:21.009Z,2.73
2018-06-12T20:16:49.142Z,2.70
2018-06-12T20:19:17.253Z,2.57
2018-06-12T20:21:45.348Z,3.30
2018-06-12T20:24:13.448Z,2.43
2018-06-12T20:26:41.566Z,2.50
2018-06-12T20:29:09.669Z,2.50
2018-06-12T20:31:37.777Z,2.23
2018-06-12T20:34:05.877Z,2.53
2018-06-12T20:36:33.993Z,2.87
2018-06-12T20:39:02.135Z,3.10
2018-06-12T20:41:30.307Z,2.77
2018-06-12T20:43:59.637Z,2.80
2018-06-12T20:46:27.765Z,2.80
2018-06-12T20:48:55.877Z,2.97
2018-06-12T20:51:23.993Z,2.80
2018-06-12T20:53:52.094Z,2.90
2018-06-12T20:56:20.266Z,3.37
2018-06-12T20:58:48.381Z,2.33
2018-06-12T21:01:16.481Z,2.93
2018-06-12T21:03:44.577Z,2.70
2018-06-12T21:06:12.690Z,2.87
2018-06-12T21:08:40.829Z,3.17
2018-06-12T21:11:08.943Z,2.70
2018-06-12T21:13:37.054Z,3.10
2018-06-12T21:16:05.501Z,3.60
2018-06-12T21:18:33.591Z,3.80
2018-06-12T21:21:01.668Z,3.50
2018-06-12T21:23:29.783Z,3.80
2018-06-12T21:25:57.874Z,3.33
2018-06-12T21:28:25.965Z,4.37
2018-06-12T21:30:54.083Z,3.67
2018-06-12T21:33:22.201Z,3.23
2018-06-12T21:35:50.293Z,3.70
2018-06-12T21:38:18.439Z,3.83
2018-06-12T21:40:46.537Z,4.13
2018-06-12T21:43:14.681Z,4.30
2018-06-12T21:45:43.904Z,3.73
2018-06-12T21:48:12.079Z,3.67
2018-06-12T21:50:40.172Z,4.30
2018-06-12T21:53:08.293Z,4.17
2018-06-12T21:55:36.413Z,3.80
2018-06-12T21:58:04.650Z,4.63
2018-06-12T22:00:33.305Z,3.87
2018-06-12T22:03:01.821Z,4.10
2018-06-12T22:05:29.915Z,4.10
2018-06-12T22:07:58.026Z,4.13
2018-06-12T22:10:26.121Z,4.10
2018-06-12T22:12:54.210Z,4.20
2018-06-12T22:15:22.302Z,4.43
2018-06-12T22:17:50.893Z,3.77
2018-06-12T22:20:18.985Z,4.27
2018-06-12T22:22:47.093Z,3.63
2018-06-12T22:25:15.186Z,3.07
2018-06-12T22:27:43.298Z,3.57
2018-06-12T22:30:11.401Z,3.77
2018-06-12T22:32:39.517Z,3.33
2018-06-12T22:35:07.654Z,3.03
2018-06-12T22:37:35.766Z,3.30
2018-06-12T22:40:03.869Z,3.70
2018-06-12T22:42:31.965Z,3.33
2018-06-12T22:45:00.103Z,3.80
2018-06-12T22:47:28.193Z,3.63
2018-06-12T22:49:56.317Z,3.03
2018-06-12T22:52:24.417Z,3.00
2018-06-12T22:54:52.526Z,3.13
2018-06-12T22:57:20.630Z,3.33
2018-06-12T22:59:48.734Z,2.77
2018-06-12T23:02:16.826Z,2.60
2018-06-12T23:04:44.924Z,2.23
2018-06-12T23:07:13.026Z,2.23
2018-06-12T23:09:41.141Z,1.90
2018-06-12T23:12:12.074Z,2.30
2018-06-12T23:14:40.226Z,2.40
2018-06-12T23:17:08.389Z,2.70
2018-06-12T23:19:42.022Z,2.60
2018-06-12T23:22:10.121Z,2.40
2018-06-12T23:24:38.229Z,2.93
2018-06-12T23:27:06.410Z,3.07
2018-06-12T23:29:34.501Z,2.43
2018-06-12T23:32:02.641Z,2.80
2018-06-12T23:34:30.741Z,2.47
2018-06-12T23:36:58.837Z,2.60
2018-06-12T23:39:27.014Z,2.57
2018-06-12T23:41:55.678Z,2.77
2018-06-12T23:44:23.757Z,2.27
2018-06-12T23:46:51.975Z,2.50
2018-06-12T23:49:20.133Z,2.33
2018-06-12T23:51:48.256Z,2.60
2018-06-12T23:54:16.355Z,3.00
2018-06-12T23:56:44.448Z,2.73
2018-06-12T23:59:12.525Z,2.93
